Aérodrome :
LOGIN :

S'inscrire | Disclaimer

   EN    FR    IT 

 










Légende :    VFR   VFR Marginal   IFR   IFR Intensif   IFR Très Intensif
Visi : 
Plafond : 
>= 8 km
>= 3000ft
5 à 8 km
1000 à 3000 ft
1500m à 5 km
500 à 1000 ft
800 à 1500m
200 à 500 ft
< 800m
< 200 ft
Symboles :   Orages  Brouillard  Fortes neiges  Fortes précipitations  Vent > 20 kt
SIGMETs :   Divers  Orages  Givrage  Turbulence  Onde Orograph.  Cendres Volcan.






- Altitude de l'aérodrome : 1234 ft
- Code IATA : LUX


ELLX - Luxembourg Findel

DERNIER METAR :
  • 102050Z 04008KT CAVOK 28/14 Q1015 NOSIG

METARs EXPIRÉS :
  • 102020Z 05006KT CAVOK 28/14 Q1015 NOSIG
  • 101950Z 04008KT 9999 FEW050TCU 28/14 Q1015 NOSIG
  • 101920Z 36005KT 9999 FEW050TCU 27/15 Q1015 NOSIG
  • 101850Z 04008KT 9999 FEW050TCU 29/14 Q1014 NOSIG
  • 101820Z 04008KT 9999 FEW050TCU 29/14 Q1014 NOSIG

TAF TAF ELLX
Valide du 10 à 18h jusqu'au 12 à 00h UTC


101700Z 1018/1124 09010KT 9999 SCT050TCU
TEMPO 1018/1020 05020G30KT TSRA BKN050CB
TEMPO 1113/1120 TSRA SCT050CB
ATIS : +352 4798 27300
Météo : +352 4798 27010 / 27050



MET'MAP, la Météo Aéronautique d'un coup d'oeil ! - Copyright ORBIFLY Décembre 2007 - Disclaimer

ORBIFLY MET'MAP TEAM :

Programmation & Développement : Alexandra Zaïnal
Sur une idée originale de : Baudouin d'Aumeries
Assistance à la programmation : Marc-Olivier Méhu
Soutien technique & logistique : Manuel Goepfert

Contact : metmap@orbifly.com




SOURCES & CREDITS :

   NOAA